sensor_id;sensor_type;location;lat;lon;timestamp;temperature;humidity
837;DHT22;400;53.550;9.932;2022-10-04T00:02:04;13.10;99.90
837;DHT22;400;53.550;9.932;2022-10-04T00:04:44;13.10;99.90
837;DHT22;400;53.550;9.932;2022-10-04T00:07:18;13.00;99.90
837;DHT22;400;53.550;9.932;2022-10-04T00:09:49;13.10;99.90
837;DHT22;400;53.550;9.932;2022-10-04T00:12:21;13.00;99.90
837;DHT22;400;53.550;9.932;2022-10-04T00:14:51;13.00;99.90
837;DHT22;400;53.550;9.932;2022-10-04T00:17:23;13.00;99.90
837;DHT22;400;53.550;9.932;2022-10-04T00:19:52;13.10;99.90
837;DHT22;400;53.550;9.932;2022-10-04T00:22:22;13.20;99.90
837;DHT22;400;53.550;9.932;2022-10-04T00:25:19;13.20;99.90
837;DHT22;400;53.550;9.932;2022-10-04T00:31:23;13.00;99.90
837;DHT22;400;53.550;9.932;2022-10-04T00:33:53;12.90;99.90
837;DHT22;400;53.550;9.932;2022-10-04T00:36:38;12.80;99.90
837;DHT22;400;53.550;9.932;2022-10-04T00:39:37;12.80;99.90
837;DHT22;400;53.550;9.932;2022-10-04T00:45:10;12.90;99.90
837;DHT22;400;53.550;9.932;2022-10-04T00:47:57;13.00;99.90
837;DHT22;400;53.550;9.932;2022-10-04T00:50:30;13.00;99.90
837;DHT22;400;53.550;9.932;2022-10-04T00:53:01;12.90;99.90
837;DHT22;400;53.550;9.932;2022-10-04T00:55:33;12.90;99.90
837;DHT22;400;53.550;9.932;2022-10-04T00:58:05;13.00;99.90
837;DHT22;400;53.550;9.932;2022-10-04T01:00:34;12.90;99.90
837;DHT22;400;53.550;9.932;2022-10-04T01:03:07;12.90;99.90
837;DHT22;400;53.550;9.932;2022-10-04T01:05:38;12.80;99.90
837;DHT22;400;53.550;9.932;2022-10-04T01:08:11;12.80;99.90
837;DHT22;400;53.550;9.932;2022-10-04T01:10:42;12.70;99.90
837;DHT22;400;53.550;9.932;2022-10-04T01:13:15;12.80;99.90
837;DHT22;400;53.550;9.932;2022-10-04T01:15:47;12.90;99.90
837;DHT22;400;53.550;9.932;2022-10-04T01:18:28;12.90;99.90
837;DHT22;400;53.550;9.932;2022-10-04T01:20:58;12.80;99.90
837;DHT22;400;53.550;9.932;2022-10-04T01:23:41;12.90;99.90
837;DHT22;400;53.550;9.932;2022-10-04T01:29:11;12.70;99.90
837;DHT22;400;53.550;9.932;2022-10-04T01:31:40;12.80;99.90
837;DHT22;400;53.550;9.932;2022-10-04T01:34:09;12.80;99.90
837;DHT22;400;53.550;9.932;2022-10-04T01:36:38;12.90;99.90
837;DHT22;400;53.550;9.932;2022-10-04T01:39:06;12.90;99.90
837;DHT22;400;53.550;9.932;2022-10-04T01:41:41;12.70;99.90
837;DHT22;400;53.550;9.932;2022-10-04T01:44:15;12.80;99.90
837;DHT22;400;53.550;9.932;2022-10-04T01:46:44;12.80;99.90
837;DHT22;400;53.550;9.932;2022-10-04T01:49:15;12.80;99.90
837;DHT22;400;53.550;9.932;2022-10-04T01:51:48;12.90;99.90
837;DHT22;400;53.550;9.932;2022-10-04T01:54:28;12.90;99.90
837;DHT22;400;53.550;9.932;2022-10-04T01:57:01;12.90;99.90
837;DHT22;400;53.550;9.932;2022-10-04T01:59:32;12.90;99.90
837;DHT22;400;53.550;9.932;2022-10-04T02:02:06;13.00;99.90
837;DHT22;400;53.550;9.932;2022-10-04T02:04:36;12.90;99.90
837;DHT22;400;53.550;9.932;2022-10-04T02:07:10;12.90;99.90
837;DHT22;400;53.550;9.932;2022-10-04T02:09:42;12.90;99.90
837;DHT22;400;53.550;9.932;2022-10-04T02:12:13;13.00;99.90
837;DHT22;400;53.550;9.932;2022-10-04T02:14:45;13.00;99.90
837;DHT22;400;53.550;9.932;2022-10-04T02:17:19;13.00;99.90
837;DHT22;400;53.550;9.932;2022-10-04T02:19:47;13.00;99.90
837;DHT22;400;53.550;9.932;2022-10-04T02:22:15;13.00;99.90
837;DHT22;400;53.550;9.932;2022-10-04T02:24:46;12.90;99.90
837;DHT22;400;53.550;9.932;2022-10-04T02:27:14;12.80;99.90
837;DHT22;400;53.550;9.932;2022-10-04T02:29:41;12.80;99.90
837;DHT22;400;53.550;9.932;2022-10-04T02:32:08;12.70;99.90
837;DHT22;400;53.550;9.932;2022-10-04T02:34:54;12.70;99.90
837;DHT22;400;53.550;9.932;2022-10-04T02:37:22;12.80;99.90
837;DHT22;400;53.550;9.932;2022-10-04T02:39:53;12.80;99.90
837;DHT22;400;53.550;9.932;2022-10-04T02:42:32;12.90;99.90
837;DHT22;400;53.550;9.932;2022-10-04T02:45:11;13.00;99.90
837;DHT22;400;53.550;9.932;2022-10-04T02:47:44;13.00;99.90
837;DHT22;400;53.550;9.932;2022-10-04T02:50:23;13.00;99.90
837;DHT22;400;53.550;9.932;2022-10-04T02:52:55;13.00;99.90
837;DHT22;400;53.550;9.932;2022-10-04T02:55:29;13.00;99.90
837;DHT22;400;53.550;9.932;2022-10-04T02:57:57;12.90;99.90
837;DHT22;400;53.550;9.932;2022-10-04T03:00:27;12.90;99.90
837;DHT22;400;53.550;9.932;2022-10-04T03:03:14;12.80;99.90
837;DHT22;400;53.550;9.932;2022-10-04T03:05:44;12.80;99.90
837;DHT22;400;53.550;9.932;2022-10-04T03:08:13;12.70;99.90
837;DHT22;400;53.550;9.932;2022-10-04T03:10:42;12.80;99.90
837;DHT22;400;53.550;9.932;2022-10-04T03:13:11;12.80;99.90
837;DHT22;400;53.550;9.932;2022-10-04T03:15:39;12.90;99.90
837;DHT22;400;53.550;9.932;2022-10-04T03:18:06;13.00;99.90
837;DHT22;400;53.550;9.932;2022-10-04T03:20:36;13.00;99.90
837;DHT22;400;53.550;9.932;2022-10-04T03:23:06;13.00;99.90
837;DHT22;400;53.550;9.932;2022-10-04T03:25:56;13.00;99.90
837;DHT22;400;53.550;9.932;2022-10-04T03:28:27;13.10;99.90
837;DHT22;400;53.550;9.932;2022-10-04T03:30:55;13.00;99.90
837;DHT22;400;53.550;9.932;2022-10-04T03:33:24;13.10;99.90
837;DHT22;400;53.550;9.932;2022-10-04T03:35:55;13.00;99.90
837;DHT22;400;53.550;9.932;2022-10-04T03:38:23;13.10;99.90
837;DHT22;400;53.550;9.932;2022-10-04T03:40:55;13.10;99.90
837;DHT22;400;53.550;9.932;2022-10-04T03:43:25;13.10;99.90
837;DHT22;400;53.550;9.932;2022-10-04T03:45:53;13.10;99.90
837;DHT22;400;53.550;9.932;2022-10-04T03:48:29;13.10;99.90
837;DHT22;400;53.550;9.932;2022-10-04T03:50:56;13.10;99.90
837;DHT22;400;53.550;9.932;2022-10-04T03:53:28;13.10;99.90
837;DHT22;400;53.550;9.932;2022-10-04T03:55:58;13.20;99.90
837;DHT22;400;53.550;9.932;2022-10-04T03:58:27;13.20;99.90
837;DHT22;400;53.550;9.932;2022-10-04T04:01:11;13.20;99.90
837;DHT22;400;53.550;9.932;2022-10-04T04:03:47;13.20;99.90
837;DHT22;400;53.550;9.932;2022-10-04T04:06:17;13.10;99.90
837;DHT22;400;53.550;9.932;2022-10-04T04:08:46;13.10;99.90
837;DHT22;400;53.550;9.932;2022-10-04T04:11:21;13.10;99.90
837;DHT22;400;53.550;9.932;2022-10-04T04:13:57;13.10;99.90
837;DHT22;400;53.550;9.932;2022-10-04T04:16:27;13.20;99.90
837;DHT22;400;53.550;9.932;2022-10-04T04:19:00;13.20;99.90
837;DHT22;400;53.550;9.932;2022-10-04T04:21:28;13.20;99.90
837;DHT22;400;53.550;9.932;2022-10-04T04:23:59;13.20;99.90
837;DHT22;400;53.550;9.932;2022-10-04T04:26:35;13.20;99.90
837;DHT22;400;53.550;9.932;2022-10-04T04:29:07;13.10;99.90
837;DHT22;400;53.550;9.932;2022-10-04T04:31:39;13.10;99.90
837;DHT22;400;53.550;9.932;2022-10-04T04:34:16;13.10;99.90
837;DHT22;400;53.550;9.932;2022-10-04T04:36:44;13.20;99.90
837;DHT22;400;53.550;9.932;2022-10-04T04:39:14;13.10;99.90
837;DHT22;400;53.550;9.932;2022-10-04T04:42:02;13.00;99.90
837;DHT22;400;53.550;9.932;2022-10-04T04:44:31;13.10;99.90
837;DHT22;400;53.550;9.932;2022-10-04T04:46:58;13.10;99.90
837;DHT22;400;53.550;9.932;2022-10-04T04:49:27;13.10;99.90
837;DHT22;400;53.550;9.932;2022-10-04T04:51:55;13.00;99.90
837;DHT22;400;53.550;9.932;2022-10-04T04:54:25;13.00;99.90
837;DHT22;400;53.550;9.932;2022-10-04T04:56:54;13.00;99.90
837;DHT22;400;53.550;9.932;2022-10-04T04:59:24;13.00;99.90
837;DHT22;400;53.550;9.932;2022-10-04T05:01:52;13.00;99.90
837;DHT22;400;53.550;9.932;2022-10-04T05:04:21;13.10;99.90
837;DHT22;400;53.550;9.932;2022-10-04T05:06:59;13.10;99.90
837;DHT22;400;53.550;9.932;2022-10-04T05:09:29;13.10;99.90
837;DHT22;400;53.550;9.932;2022-10-04T05:12:03;13.10;99.90
837;DHT22;400;53.550;9.932;2022-10-04T05:14:39;13.20;99.90
837;DHT22;400;53.550;9.932;2022-10-04T05:17:18;13.20;99.90
837;DHT22;400;53.550;9.932;2022-10-04T05:19:48;13.20;99.90
837;DHT22;400;53.550;9.932;2022-10-04T05:22:18;13.20;99.90
837;DHT22;400;53.550;9.932;2022-10-04T05:24:51;13.20;99.90
837;DHT22;400;53.550;9.932;2022-10-04T05:27:24;13.20;99.90
837;DHT22;400;53.550;9.932;2022-10-04T05:30:05;13.10;99.90
837;DHT22;400;53.550;9.932;2022-10-04T05:32:39;13.20;99.90
837;DHT22;400;53.550;9.932;2022-10-04T05:35:16;13.20;99.90
837;DHT22;400;53.550;9.932;2022-10-04T05:38:12;13.20;99.90
837;DHT22;400;53.550;9.932;2022-10-04T05:40:46;13.20;99.90
837;DHT22;400;53.550;9.932;2022-10-04T05:43:24;13.20;99.90
837;DHT22;400;53.550;9.932;2022-10-04T05:46:22;13.20;99.90
837;DHT22;400;53.550;9.932;2022-10-04T05:48:53;13.20;99.90
837;DHT22;400;53.550;9.932;2022-10-04T05:51:23;13.20;99.90
837;DHT22;400;53.550;9.932;2022-10-04T05:53:52;13.20;99.90
837;DHT22;400;53.550;9.932;2022-10-04T05:59:49;13.20;99.90
837;DHT22;400;53.550;9.932;2022-10-04T06:02:55;13.20;99.90
837;DHT22;400;53.550;9.932;2022-10-04T06:05:40;13.30;99.90
837;DHT22;400;53.550;9.932;2022-10-04T06:08:21;13.30;99.90
837;DHT22;400;53.550;9.932;2022-10-04T06:11:20;13.30;99.90
837;DHT22;400;53.550;9.932;2022-10-04T06:17:42;13.30;99.90
837;DHT22;400;53.550;9.932;2022-10-04T06:20:39;13.30;99.90
837;DHT22;400;53.550;9.932;2022-10-04T06:23:16;13.30;99.90
837;DHT22;400;53.550;9.932;2022-10-04T06:25:49;13.30;99.90
837;DHT22;400;53.550;9.932;2022-10-04T06:28:20;13.30;99.90
837;DHT22;400;53.550;9.932;2022-10-04T06:31:08;13.30;99.90
837;DHT22;400;53.550;9.932;2022-10-04T06:33:58;13.30;99.90
837;DHT22;400;53.550;9.932;2022-10-04T06:36:48;13.30;99.90
837;DHT22;400;53.550;9.932;2022-10-04T06:39:46;13.30;99.90
837;DHT22;400;53.550;9.932;2022-10-04T06:42:42;13.30;99.90
837;DHT22;400;53.550;9.932;2022-10-04T06:45:31;13.30;99.90
837;DHT22;400;53.550;9.932;2022-10-04T06:48:22;13.20;99.90
837;DHT22;400;53.550;9.932;2022-10-04T06:50:59;13.30;99.90
837;DHT22;400;53.550;9.932;2022-10-04T06:53:41;13.30;99.90
837;DHT22;400;53.550;9.932;2022-10-04T06:59:28;13.40;99.90
837;DHT22;400;53.550;9.932;2022-10-04T07:02:09;13.40;99.90
837;DHT22;400;53.550;9.932;2022-10-04T07:04:45;13.50;99.90
837;DHT22;400;53.550;9.932;2022-10-04T07:07:30;13.50;99.90
837;DHT22;400;53.550;9.932;2022-10-04T07:10:20;13.50;99.90
837;DHT22;400;53.550;9.932;2022-10-04T07:13:11;13.60;99.90
837;DHT22;400;53.550;9.932;2022-10-04T07:15:51;13.60;99.90
837;DHT22;400;53.550;9.932;2022-10-04T07:18:28;13.60;99.90
837;DHT22;400;53.550;9.932;2022-10-04T07:21:04;13.70;99.90
837;DHT22;400;53.550;9.932;2022-10-04T07:23:48;13.70;99.90
837;DHT22;400;53.550;9.932;2022-10-04T07:26:23;13.80;99.90
837;DHT22;400;53.550;9.932;2022-10-04T07:28:56;13.80;99.90
837;DHT22;400;53.550;9.932;2022-10-04T07:31:46;13.90;99.90
837;DHT22;400;53.550;9.932;2022-10-04T07:34:22;13.90;99.90
837;DHT22;400;53.550;9.932;2022-10-04T07:36:52;14.00;99.90
837;DHT22;400;53.550;9.932;2022-10-04T07:39:28;14.00;99.90
837;DHT22;400;53.550;9.932;2022-10-04T07:42:06;14.00;99.90
837;DHT22;400;53.550;9.932;2022-10-04T07:44:41;14.10;99.90
837;DHT22;400;53.550;9.932;2022-10-04T07:47:17;14.10;99.90
837;DHT22;400;53.550;9.932;2022-10-04T07:49:46;14.10;99.90
837;DHT22;400;53.550;9.932;2022-10-04T07:52:35;14.10;99.90
837;DHT22;400;53.550;9.932;2022-10-04T07:55:17;14.20;99.90
837;DHT22;400;53.550;9.932;2022-10-04T07:58:17;14.20;99.90
837;DHT22;400;53.550;9.932;2022-10-04T08:00:52;14.20;99.90
837;DHT22;400;53.550;9.932;2022-10-04T08:03:46;14.30;99.90
837;DHT22;400;53.550;9.932;2022-10-04T08:06:22;14.40;99.90
837;DHT22;400;53.550;9.932;2022-10-04T08:09:42;14.50;99.90
837;DHT22;400;53.550;9.932;2022-10-04T08:12:19;14.50;99.90
837;DHT22;400;53.550;9.932;2022-10-04T08:15:08;14.60;99.90
837;DHT22;400;53.550;9.932;2022-10-04T08:17:47;14.60;99.90
837;DHT22;400;53.550;9.932;2022-10-04T08:20:31;14.70;99.90
837;DHT22;400;53.550;9.932;2022-10-04T08:25:58;14.70;99.90
837;DHT22;400;53.550;9.932;2022-10-04T08:28:42;14.80;99.90
837;DHT22;400;53.550;9.932;2022-10-04T08:31:35;14.80;99.90
837;DHT22;400;53.550;9.932;2022-10-04T08:34:18;14.80;99.90
837;DHT22;400;53.550;9.932;2022-10-04T08:36:55;14.90;99.90
837;DHT22;400;53.550;9.932;2022-10-04T08:39:42;14.90;99.90
837;DHT22;400;53.550;9.932;2022-10-04T08:43:03;15.00;99.90
837;DHT22;400;53.550;9.932;2022-10-04T08:46:05;15.10;99.90
837;DHT22;400;53.550;9.932;2022-10-04T08:52:08;15.10;99.90
837;DHT22;400;53.550;9.932;2022-10-04T09:04:01;15.30;99.90
837;DHT22;400;53.550;9.932;2022-10-04T09:06:48;15.30;99.90
837;DHT22;400;53.550;9.932;2022-10-04T09:09:55;15.40;99.90
837;DHT22;400;53.550;9.932;2022-10-04T09:12:41;15.40;99.90
837;DHT22;400;53.550;9.932;2022-10-04T09:15:29;15.50;99.90
837;DHT22;400;53.550;9.932;2022-10-04T09:18:32;15.60;99.90
837;DHT22;400;53.550;9.932;2022-10-04T09:21:14;15.60;99.90
837;DHT22;400;53.550;9.932;2022-10-04T09:26:58;15.70;99.90
837;DHT22;400;53.550;9.932;2022-10-04T09:29:56;15.80;99.90
837;DHT22;400;53.550;9.932;2022-10-04T09:35:54;15.90;99.90
837;DHT22;400;53.550;9.932;2022-10-04T09:42:24;16.00;99.90
837;DHT22;400;53.550;9.932;2022-10-04T09:45:23;16.10;99.90
837;DHT22;400;53.550;9.932;2022-10-04T09:48:08;16.10;99.90
837;DHT22;400;53.550;9.932;2022-10-04T09:51:18;16.10;99.90
837;DHT22;400;53.550;9.932;2022-10-04T09:54:10;16.20;99.90
837;DHT22;400;53.550;9.932;2022-10-04T09:57:04;16.20;99.90
837;DHT22;400;53.550;9.932;2022-10-04T10:06:13;16.20;99.90
837;DHT22;400;53.550;9.932;2022-10-04T10:08:58;16.30;99.90
837;DHT22;400;53.550;9.932;2022-10-04T10:11:37;16.40;99.90
837;DHT22;400;53.550;9.932;2022-10-04T10:17:31;16.50;99.90
837;DHT22;400;53.550;9.932;2022-10-04T10:20:30;16.40;99.90
837;DHT22;400;53.550;9.932;2022-10-04T10:23:33;16.40;99.90
837;DHT22;400;53.550;9.932;2022-10-04T10:26:33;16.30;99.90
837;DHT22;400;53.550;9.932;2022-10-04T10:29:33;16.30;99.90
837;DHT22;400;53.550;9.932;2022-10-04T10:32:41;16.30;99.90
837;DHT22;400;53.550;9.932;2022-10-04T10:35:30;16.40;99.90
837;DHT22;400;53.550;9.932;2022-10-04T10:38:25;16.50;99.90
837;DHT22;400;53.550;9.932;2022-10-04T10:41:13;16.60;99.90
837;DHT22;400;53.550;9.932;2022-10-04T10:44:06;16.60;99.90
837;DHT22;400;53.550;9.932;2022-10-04T10:46:49;16.60;99.90
837;DHT22;400;53.550;9.932;2022-10-04T10:49:57;16.70;99.90
837;DHT22;400;53.550;9.932;2022-10-04T10:55:58;16.90;99.90
837;DHT22;400;53.550;9.932;2022-10-04T11:04:56;17.10;99.90
837;DHT22;400;53.550;9.932;2022-10-04T11:07:47;17.10;99.90
837;DHT22;400;53.550;9.932;2022-10-04T11:10:58;17.20;99.90
837;DHT22;400;53.550;9.932;2022-10-04T11:14:01;17.30;99.90
837;DHT22;400;53.550;9.932;2022-10-04T11:20:20;17.40;99.90
837;DHT22;400;53.550;9.932;2022-10-04T11:26:40;17.40;99.90
837;DHT22;400;53.550;9.932;2022-10-04T11:29:32;17.50;99.90
837;DHT22;400;53.550;9.932;2022-10-04T11:35:51;17.50;99.90
837;DHT22;400;53.550;9.932;2022-10-04T11:38:46;17.70;99.90
837;DHT22;400;53.550;9.932;2022-10-04T11:41:31;17.70;99.90
837;DHT22;400;53.550;9.932;2022-10-04T11:47:43;17.80;99.90
837;DHT22;400;53.550;9.932;2022-10-04T11:50:35;17.90;99.90
837;DHT22;400;53.550;9.932;2022-10-04T11:59:20;17.90;99.90
837;DHT22;400;53.550;9.932;2022-10-04T12:02:36;18.00;99.90
837;DHT22;400;53.550;9.932;2022-10-04T12:05:32;18.10;99.90
837;DHT22;400;53.550;9.932;2022-10-04T12:08:16;18.20;99.90
837;DHT22;400;53.550;9.932;2022-10-04T12:14:36;18.30;99.90
837;DHT22;400;53.550;9.932;2022-10-04T12:20:53;18.20;99.90
837;DHT22;400;53.550;9.932;2022-10-04T12:23:48;18.30;99.90
837;DHT22;400;53.550;9.932;2022-10-04T12:26:44;18.20;99.90
837;DHT22;400;53.550;9.932;2022-10-04T12:32:48;18.20;99.90
837;DHT22;400;53.550;9.932;2022-10-04T12:35:26;18.20;99.90
837;DHT22;400;53.550;9.932;2022-10-04T12:38:23;18.20;99.90
837;DHT22;400;53.550;9.932;2022-10-04T12:41:09;18.00;99.90
837;DHT22;400;53.550;9.932;2022-10-04T12:49:20;18.30;99.90
837;DHT22;400;53.550;9.932;2022-10-04T12:52:06;18.40;99.90
837;DHT22;400;53.550;9.932;2022-10-04T12:54:50;18.40;99.90
837;DHT22;400;53.550;9.932;2022-10-04T12:57:35;18.50;99.90
837;DHT22;400;53.550;9.932;2022-10-04T13:00:33;18.50;99.90
837;DHT22;400;53.550;9.932;2022-10-04T13:03:24;18.50;99.90
837;DHT22;400;53.550;9.932;2022-10-04T13:06:09;18.60;99.90
837;DHT22;400;53.550;9.932;2022-10-04T13:09:04;18.50;99.90
837;DHT22;400;53.550;9.932;2022-10-04T13:11:56;18.60;99.90
837;DHT22;400;53.550;9.932;2022-10-04T13:14:34;18.60;99.90
837;DHT22;400;53.550;9.932;2022-10-04T13:17:15;18.60;99.90
837;DHT22;400;53.550;9.932;2022-10-04T13:19:58;18.60;99.90
837;DHT22;400;53.550;9.932;2022-10-04T13:22:54;18.50;99.90
837;DHT22;400;53.550;9.932;2022-10-04T13:25:55;18.60;99.90
837;DHT22;400;53.550;9.932;2022-10-04T13:28:38;18.50;99.90
837;DHT22;400;53.550;9.932;2022-10-04T13:31:23;18.60;99.90
837;DHT22;400;53.550;9.932;2022-10-04T13:34:15;18.60;99.90
837;DHT22;400;53.550;9.932;2022-10-04T13:37:12;18.60;99.90
837;DHT22;400;53.550;9.932;2022-10-04T13:40:10;18.60;99.90
837;DHT22;400;53.550;9.932;2022-10-04T13:42:57;18.60;99.90
837;DHT22;400;53.550;9.932;2022-10-04T13:45:40;18.60;99.90
837;DHT22;400;53.550;9.932;2022-10-04T13:48:29;18.60;99.90
837;DHT22;400;53.550;9.932;2022-10-04T13:51:15;18.60;99.90
837;DHT22;400;53.550;9.932;2022-10-04T13:53:53;18.60;99.90
837;DHT22;400;53.550;9.932;2022-10-04T13:56:59;18.60;99.90
837;DHT22;400;53.550;9.932;2022-10-04T13:59:42;18.60;99.90
837;DHT22;400;53.550;9.932;2022-10-04T14:15:45;18.70;99.90
837;DHT22;400;53.550;9.932;2022-10-04T14:18:51;18.60;99.90
837;DHT22;400;53.550;9.932;2022-10-04T14:22:04;18.50;99.90
837;DHT22;400;53.550;9.932;2022-10-04T14:25:06;18.50;99.90
837;DHT22;400;53.550;9.932;2022-10-04T14:28:14;18.60;99.90
837;DHT22;400;53.550;9.932;2022-10-04T14:31:01;18.60;99.90
837;DHT22;400;53.550;9.932;2022-10-04T14:34:02;18.60;99.90
837;DHT22;400;53.550;9.932;2022-10-04T14:36:56;18.60;99.90
837;DHT22;400;53.550;9.932;2022-10-04T14:40:03;18.70;99.90
837;DHT22;400;53.550;9.932;2022-10-04T14:45:58;18.70;99.90
837;DHT22;400;53.550;9.932;2022-10-04T14:51:53;18.70;99.90
837;DHT22;400;53.550;9.932;2022-10-04T14:54:42;18.60;99.90
837;DHT22;400;53.550;9.932;2022-10-04T14:57:17;18.70;99.90
837;DHT22;400;53.550;9.932;2022-10-04T15:00:17;18.70;99.90
837;DHT22;400;53.550;9.932;2022-10-04T15:03:29;18.60;99.90
837;DHT22;400;53.550;9.932;2022-10-04T15:06:22;18.60;99.90
837;DHT22;400;53.550;9.932;2022-10-04T15:09:19;18.60;99.90
837;DHT22;400;53.550;9.932;2022-10-04T15:11:56;18.60;99.90
837;DHT22;400;53.550;9.932;2022-10-04T15:14:33;18.60;99.90
837;DHT22;400;53.550;9.932;2022-10-04T15:17:07;18.60;99.90
837;DHT22;400;53.550;9.932;2022-10-04T15:19:58;18.50;99.90
837;DHT22;400;53.550;9.932;2022-10-04T15:22:36;18.60;99.90
837;DHT22;400;53.550;9.932;2022-10-04T15:28:33;18.60;99.90
837;DHT22;400;53.550;9.932;2022-10-04T15:31:17;18.50;99.90
837;DHT22;400;53.550;9.932;2022-10-04T15:34:01;18.40;99.90
837;DHT22;400;53.550;9.932;2022-10-04T15:36:57;18.40;99.90
837;DHT22;400;53.550;9.932;2022-10-04T15:40:02;18.40;99.90
837;DHT22;400;53.550;9.932;2022-10-04T15:42:38;18.30;99.90
837;DHT22;400;53.550;9.932;2022-10-04T15:45:36;18.30;99.90
837;DHT22;400;53.550;9.932;2022-10-04T15:48:26;18.30;99.90
837;DHT22;400;53.550;9.932;2022-10-04T15:51:04;18.30;99.90
837;DHT22;400;53.550;9.932;2022-10-04T15:53:51;18.30;99.90
837;DHT22;400;53.550;9.932;2022-10-04T15:56:32;18.20;99.90
837;DHT22;400;53.550;9.932;2022-10-04T15:59:21;18.20;99.90
837;DHT22;400;53.550;9.932;2022-10-04T16:05:11;18.20;99.90
837;DHT22;400;53.550;9.932;2022-10-04T16:07:58;18.20;99.90
837;DHT22;400;53.550;9.932;2022-10-04T16:10:51;18.10;99.90
837;DHT22;400;53.550;9.932;2022-10-04T16:13:44;18.10;99.90
837;DHT22;400;53.550;9.932;2022-10-04T16:19:30;18.00;99.90
837;DHT22;400;53.550;9.932;2022-10-04T16:22:12;18.00;99.90
837;DHT22;400;53.550;9.932;2022-10-04T16:24:49;17.90;99.90
837;DHT22;400;53.550;9.932;2022-10-04T16:27:54;17.90;99.90
837;DHT22;400;53.550;9.932;2022-10-04T16:30:31;17.80;99.90
837;DHT22;400;53.550;9.932;2022-10-04T16:36:10;17.80;99.90
837;DHT22;400;53.550;9.932;2022-10-04T16:38:52;17.80;99.90
837;DHT22;400;53.550;9.932;2022-10-04T16:41:42;17.70;99.90
837;DHT22;400;53.550;9.932;2022-10-04T16:44:34;17.70;99.90
837;DHT22;400;53.550;9.932;2022-10-04T16:47:19;17.70;99.90
837;DHT22;400;53.550;9.932;2022-10-04T16:49:53;17.60;99.90
837;DHT22;400;53.550;9.932;2022-10-04T16:52:44;17.60;99.90
837;DHT22;400;53.550;9.932;2022-10-04T16:55:42;17.60;99.90
837;DHT22;400;53.550;9.932;2022-10-04T16:58:34;17.50;99.90
837;DHT22;400;53.550;9.932;2022-10-04T17:01:35;17.50;99.90
837;DHT22;400;53.550;9.932;2022-10-04T17:04:43;17.40;99.90
837;DHT22;400;53.550;9.932;2022-10-04T17:07:47;17.40;99.90
837;DHT22;400;53.550;9.932;2022-10-04T17:10:31;17.30;99.90
837;DHT22;400;53.550;9.932;2022-10-04T17:13:17;17.30;99.90
837;DHT22;400;53.550;9.932;2022-10-04T17:15:48;17.30;99.90
837;DHT22;400;53.550;9.932;2022-10-04T17:18:37;17.20;99.90
837;DHT22;400;53.550;9.932;2022-10-04T17:21:20;17.20;99.90
837;DHT22;400;53.550;9.932;2022-10-04T17:24:08;17.20;99.90
837;DHT22;400;53.550;9.932;2022-10-04T17:26:55;17.10;99.90
837;DHT22;400;53.550;9.932;2022-10-04T17:29:39;17.10;99.90
837;DHT22;400;53.550;9.932;2022-10-04T17:32:21;17.00;99.90
837;DHT22;400;53.550;9.932;2022-10-04T17:35:11;17.00;99.90
837;DHT22;400;53.550;9.932;2022-10-04T17:37:49;16.90;99.90
837;DHT22;400;53.550;9.932;2022-10-04T17:40:34;16.90;99.90
837;DHT22;400;53.550;9.932;2022-10-04T17:43:19;16.90;99.90
837;DHT22;400;53.550;9.932;2022-10-04T17:46:06;16.90;99.90
837;DHT22;400;53.550;9.932;2022-10-04T17:48:47;16.90;99.90
837;DHT22;400;53.550;9.932;2022-10-04T17:51:46;16.80;99.90
837;DHT22;400;53.550;9.932;2022-10-04T17:54:39;16.80;99.90
837;DHT22;400;53.550;9.932;2022-10-04T17:57:29;16.80;99.90
837;DHT22;400;53.550;9.932;2022-10-04T18:00:07;16.80;99.90
837;DHT22;400;53.550;9.932;2022-10-04T18:03:09;16.70;99.90
837;DHT22;400;53.550;9.932;2022-10-04T18:05:48;16.70;99.90
837;DHT22;400;53.550;9.932;2022-10-04T18:08:24;16.70;99.90
837;DHT22;400;53.550;9.932;2022-10-04T18:11:00;16.70;99.90
837;DHT22;400;53.550;9.932;2022-10-04T18:13:31;16.70;99.90
837;DHT22;400;53.550;9.932;2022-10-04T18:16:06;16.60;99.90
837;DHT22;400;53.550;9.932;2022-10-04T18:18:40;16.60;99.90
837;DHT22;400;53.550;9.932;2022-10-04T18:21:25;16.60;99.90
837;DHT22;400;53.550;9.932;2022-10-04T18:23:58;16.60;99.90
837;DHT22;400;53.550;9.932;2022-10-04T18:26:31;16.60;99.90
837;DHT22;400;53.550;9.932;2022-10-04T18:29:01;16.50;99.90
837;DHT22;400;53.550;9.932;2022-10-04T18:31:38;16.50;99.90
837;DHT22;400;53.550;9.932;2022-10-04T18:34:17;16.50;99.90
837;DHT22;400;53.550;9.932;2022-10-04T18:37:02;16.50;99.90
837;DHT22;400;53.550;9.932;2022-10-04T18:39:45;16.50;99.90
837;DHT22;400;53.550;9.932;2022-10-04T18:42:23;16.50;99.90
837;DHT22;400;53.550;9.932;2022-10-04T18:44:56;16.50;99.90
837;DHT22;400;53.550;9.932;2022-10-04T18:47:29;16.50;99.90
837;DHT22;400;53.550;9.932;2022-10-04T18:50:13;16.50;99.90
837;DHT22;400;53.550;9.932;2022-10-04T18:52:49;16.40;99.90
837;DHT22;400;53.550;9.932;2022-10-04T18:55:33;16.40;99.90
837;DHT22;400;53.550;9.932;2022-10-04T18:58:14;16.40;99.90
837;DHT22;400;53.550;9.932;2022-10-04T19:01:11;16.30;99.90
837;DHT22;400;53.550;9.932;2022-10-04T19:04:01;16.40;99.90
837;DHT22;400;53.550;9.932;2022-10-04T19:06:34;16.30;99.90
837;DHT22;400;53.550;9.932;2022-10-04T19:09:11;16.30;99.90
837;DHT22;400;53.550;9.932;2022-10-04T19:11:44;16.20;99.90
837;DHT22;400;53.550;9.932;2022-10-04T19:14:24;16.20;99.90
837;DHT22;400;53.550;9.932;2022-10-04T19:16:57;16.20;99.90
837;DHT22;400;53.550;9.932;2022-10-04T19:19:47;16.20;99.90
837;DHT22;400;53.550;9.932;2022-10-04T19:22:28;16.20;99.90
837;DHT22;400;53.550;9.932;2022-10-04T19:28:05;16.20;99.90
837;DHT22;400;53.550;9.932;2022-10-04T19:31:03;16.20;99.90
837;DHT22;400;53.550;9.932;2022-10-04T19:33:41;16.20;99.90
837;DHT22;400;53.550;9.932;2022-10-04T19:36:28;16.10;99.90
837;DHT22;400;53.550;9.932;2022-10-04T19:39:14;16.10;99.90
837;DHT22;400;53.550;9.932;2022-10-04T19:41:53;16.00;99.90
837;DHT22;400;53.550;9.932;2022-10-04T19:44:40;16.10;99.90
837;DHT22;400;53.550;9.932;2022-10-04T19:47:24;16.00;99.90
837;DHT22;400;53.550;9.932;2022-10-04T19:49:57;16.00;99.90
837;DHT22;400;53.550;9.932;2022-10-04T19:52:40;16.00;99.90
837;DHT22;400;53.550;9.932;2022-10-04T19:55:23;16.00;99.90
837;DHT22;400;53.550;9.932;2022-10-04T19:57:54;16.00;99.90
837;DHT22;400;53.550;9.932;2022-10-04T20:00:24;16.00;99.90
837;DHT22;400;53.550;9.932;2022-10-04T20:02:51;16.00;99.90
837;DHT22;400;53.550;9.932;2022-10-04T20:05:20;15.90;99.90
837;DHT22;400;53.550;9.932;2022-10-04T20:07:51;15.90;99.90
837;DHT22;400;53.550;9.932;2022-10-04T20:10:30;15.90;99.90
837;DHT22;400;53.550;9.932;2022-10-04T20:13:16;15.90;99.90
837;DHT22;400;53.550;9.932;2022-10-04T20:15:51;15.90;99.90
837;DHT22;400;53.550;9.932;2022-10-04T20:21:34;15.90;99.90
837;DHT22;400;53.550;9.932;2022-10-04T20:24:05;15.80;99.90
837;DHT22;400;53.550;9.932;2022-10-04T20:26:42;15.80;99.90
837;DHT22;400;53.550;9.932;2022-10-04T20:32:55;15.70;99.90
837;DHT22;400;53.550;9.932;2022-10-04T20:38:50;15.50;99.90